»·PEaware :: SWA2206 KLAS-KSMF

SWA2206 :: KLAS-KSMF

FLIGHT INFORMATION

Flight Status: Arrived
Operator:
Southwest Airlines
More flights by this operator :: More flights under this callsign
Pilot: Anonymous 14085 (14085)
Aircraft: BOEING 737-800
(B738)
More flights by this aircraft type
Origin: KLAS McCarran Intl
United States
Destination: KSMF Sacramento Intl
United States
More flights between these airports :: More routes between these airports
Route: +SHEAD9 KENNO DONNR SLMMR3
File this flight plan on PilotEdge
Remarks: PBN / A1B1C1D1S1S2 DOF / 170619 REG / N806SB EET / KZOA0022 OPR / SWA RMK / TCAS SIMBRIEF
Altitude:
(Current/Filed)
40,000ft
Speed:
(Current/Filed)
433kts
Departed: 19-Jun-17 12:22 PM
Arrived: 19-Jun-17 01:26 PM
Distance/Time
Traveled:
345nm/1:04
Distance/Time
To Go:
Arrived

Flight Plot

Page will automatically refresh every two minutes.

Flight plan parsing failed; only flown route is shown


Map Options




Map Legend


Flown Route
Filed Route
Departure Airport
Arrival Airport
Navaid (VOR, NDB)
Fix

Horizontal Profiles

Position Reports

Time Latitude Longitude Heading Altitude Ground
Speed
19-Jun-17 11:54 36.079756 -115.146262 342 2119ft 0kts
19-Jun-17 11:54 36.079756 -115.146262 342 2119ft 0kts
19-Jun-17 11:55 36.079756 -115.146262 342 2119ft 0kts
19-Jun-17 11:56 36.079756 -115.146262 342 2119ft 0kts
19-Jun-17 11:57 36.079756 -115.146262 342 2119ft 0kts
19-Jun-17 11:58 36.079756 -115.146262 342 2119ft 0kts
19-Jun-17 11:59 36.079756 -115.146262 342 2119ft 0kts
19-Jun-17 12:01 36.079756 -115.146262 342 2119ft 0kts
19-Jun-17 12:02 36.079756 -115.146262 342 2119ft 0kts
19-Jun-17 12:03 36.079756 -115.146262 342 2119ft 0kts
19-Jun-17 12:04 36.079756 -115.146262 342 2119ft 0kts
19-Jun-17 12:05 36.079756 -115.146262 342 2119ft 0kts
19-Jun-17 12:06 36.079756 -115.146262 342 2119ft 0kts
19-Jun-17 12:07 36.079756 -115.146262 342 2119ft 0kts
19-Jun-17 12:08 36.079756 -115.146262 342 2119ft 0kts
19-Jun-17 12:09 36.079756 -115.146262 342 2119ft 0kts
19-Jun-17 12:10 36.079756 -115.146262 342 2119ft 0kts
19-Jun-17 12:12 36.079756 -115.146262 342 2119ft 0kts
19-Jun-17 12:13 36.079756 -115.146262 342 2119ft 0kts
19-Jun-17 12:14 36.079756 -115.146262 342 2119ft 0kts
19-Jun-17 12:15 36.079756 -115.146262 342 2119ft 0kts
19-Jun-17 12:16 36.079756 -115.146262 342 2119ft 0kts
19-Jun-17 12:17 36.079756 -115.146262 342 2119ft 0kts
19-Jun-17 12:18 36.079756 -115.146262 342 2119ft 0kts
19-Jun-17 12:19 36.079254 -115.146022 318 2119ft 0kts
19-Jun-17 12:20 36.079089 -115.146267 239 2119ft 10kts
19-Jun-17 12:21 36.078440 -115.146988 217 2119ft 11kts
19-Jun-17 12:22 36.077988 -115.150362 273 2119ft 11kts
19-Jun-17 12:23 36.078025 -115.155245 270 2119ft 18kts
19-Jun-17 12:24 36.077281 -115.161260 180 2119ft 11kts
19-Jun-17 12:25 36.076370 -115.147330 89 2119ft 140kts
19-Jun-17 12:26 36.075317 -115.081817 87 3563ft 246kts
19-Jun-17 12:27 36.075192 -114.991824 98 5749ft 286kts
19-Jun-17 12:28 36.031467 -114.934276 156 8851ft 286kts
19-Jun-17 12:29 35.960804 -114.916232 204 12470ft 267kts
19-Jun-17 12:30 35.905185 -114.972790 225 14350ft 308kts
19-Jun-17 12:31 35.843701 -115.050244 234 15903ft 375kts
19-Jun-17 12:32 35.834619 -115.181931 291 17537ft 419kts
19-Jun-17 12:33 35.907244 -115.294978 308 20919ft 427kts
19-Jun-17 12:34 35.986121 -115.405719 308 23787ft 442kts
19-Jun-17 12:35 36.068160 -115.521489 307 26364ft 458kts
19-Jun-17 12:36 36.151401 -115.639350 307 28660ft 472kts
19-Jun-17 12:37 36.236574 -115.760396 306 30782ft 485kts
19-Jun-17 12:38 36.325889 -115.887931 305 32496ft 501kts
19-Jun-17 12:39 36.417175 -116.018729 305 33939ft 494kts
19-Jun-17 12:40 36.506462 -116.147298 305 34017ft 496kts
19-Jun-17 12:41 36.596017 -116.276838 305 34021ft 496kts
19-Jun-17 12:42 36.685386 -116.406609 305 34022ft 496kts
19-Jun-17 12:43 36.774837 -116.537046 305 34022ft 497kts
19-Jun-17 12:44 36.862969 -116.666008 304 34026ft 496kts
19-Jun-17 12:45 36.950510 -116.794591 304 34026ft 497kts
19-Jun-17 12:46 37.039343 -116.925610 305 34028ft 497kts
19-Jun-17 12:47 37.125932 -117.053819 305 34060ft 498kts
19-Jun-17 12:48 37.214628 -117.185633 305 34199ft 497kts
19-Jun-17 12:49 37.303172 -117.317835 304 34206ft 496kts
19-Jun-17 12:50 37.390570 -117.450840 304 34209ft 497kts
19-Jun-17 12:51 37.478123 -117.584586 304 34207ft 497kts
19-Jun-17 12:52 37.562426 -117.713883 304 34211ft 496kts
19-Jun-17 12:53 37.649670 -117.848274 304 34245ft 499kts
19-Jun-17 12:54 37.736910 -117.983201 304 34310ft 499kts
19-Jun-17 12:55 37.823220 -118.118694 303 34357ft 497kts
19-Jun-17 12:56 37.905410 -118.257842 300 34212ft 498kts
19-Jun-17 12:57 37.983960 -118.400057 295 34236ft 484kts
19-Jun-17 12:58 38.029780 -118.500779 298 34352ft 486kts
19-Jun-17 12:59 38.089071 -118.610408 300 34351ft 483kts
19-Jun-17 13:00 38.154785 -118.728507 300 34339ft 482kts
19-Jun-17 13:01 38.231194 -118.866307 299 34300ft 483kts
19-Jun-17 13:02 38.308115 -119.005473 300 34289ft 483kts
19-Jun-17 13:03 38.384835 -119.144955 300 33286ft 491kts
19-Jun-17 13:04 38.461215 -119.284286 300 31659ft 486kts
19-Jun-17 13:05 38.537539 -119.424167 301 29705ft 486kts
19-Jun-17 13:06 38.614186 -119.565186 301 27724ft 478kts
19-Jun-17 13:07 38.683711 -119.693639 301 25838ft 461kts
19-Jun-17 13:08 38.742705 -119.803059 301 24130ft 442kts
19-Jun-17 13:09 38.810404 -119.929016 301 22179ft 430kts
19-Jun-17 13:10 38.875990 -120.051562 301 20663ft 423kts
19-Jun-17 13:11 38.941125 -120.173733 301 20431ft 421kts
19-Jun-17 13:12 38.998139 -120.301248 283 19812ft 417kts
19-Jun-17 13:13 39.025701 -120.435559 281 17805ft 377kts
19-Jun-17 13:14 39.049740 -120.561317 281 15878ft 373kts
19-Jun-17 13:15 39.069175 -120.677346 267 14344ft 364kts
19-Jun-17 13:16 39.051294 -120.774370 250 12949ft 336kts
19-Jun-17 13:17 39.025147 -120.878284 250 11330ft 319kts
19-Jun-17 13:18 38.999055 -120.979087 249 9711ft 305kts
19-Jun-17 13:19 38.973122 -121.077753 249 8058ft 292kts
19-Jun-17 13:20 38.948334 -121.171501 250 6588ft 276kts
19-Jun-17 13:21 38.925650 -121.257337 250 5454ft 234kts
19-Jun-17 13:22 38.905328 -121.333941 250 4858ft 230kts
19-Jun-17 13:23 38.879912 -121.407836 236 3859ft 231kts
19-Jun-17 13:24 38.845910 -121.473428 236 2437ft 217kts
19-Jun-17 13:25 38.822667 -121.537230 251 1865ft 185kts
19-Jun-17 13:26 38.804054 -121.594669 240 1583ft 167kts
19-Jun-17 13:27 38.767302 -121.607971 165 1084ft 151kts
19-Jun-17 13:28 38.726543 -121.600248 182 439ft 147kts
19-Jun-17 13:29 38.694968 -121.600887 157 28ft 35kts
19-Jun-17 13:30 38.692127 -121.598262 90 28ft 7kts
19-Jun-17 13:31 38.694587 -121.594879 26 28ft 8kts
19-Jun-17 13:32 38.695160 -121.594516 24 28ft 0kts

Navigation Log

Ident Type
Flight plan parsing failed, navigation log unavailable